Time;durP1;ratioP1;P1;durP2;ratioP2;P2;SDS_P1;SDS_P2;PMS_P1;PMS_P2;Temp;Humidity;BMP_temperature;BMP_pressure;BME280_temperature;BME280_humidity;BME280_pressure;Samples;Min_cycle;Max_cycle;Signal;HPM_P1;HPM_P2
2023/07/19 00:01:25;;;;;;;5.20;4.65;;;;;;;25.11;63.86;94829.44;5109787;28;20640;-43
2023/07/19 00:03:52;;;;;;;5.63;4.25;;;;;;;25.08;63.83;94817.59;5110558;28;20181;-43
2023/07/19 00:06:19;;;;;;;4.90;4.40;;;;;;;25.01;64.06;94820.31;5109993;28;20640;-44
2023/07/19 00:08:47;;;;;;;5.05;4.53;;;;;;;24.99;64.23;94819.72;5110210;28;20193;-45
2023/07/19 00:11:13;;;;;;;5.85;4.18;;;;;;;25.00;64.11;94815.31;5109610;28;20189;-43
2023/07/19 00:13:40;;;;;;;4.38;3.97;;;;;;;24.85;63.96;94805.22;5110090;28;20201;-43
2023/07/19 00:16:06;;;;;;;4.10;3.70;;;;;;;24.94;64.11;94814.34;5109740;28;20197;-44
2023/07/19 00:18:33;;;;;;;4.35;3.60;;;;;;;24.96;64.00;94812.31;5110036;28;20221;-43
2023/07/19 00:21:00;;;;;;;5.07;4.57;;;;;;;24.96;63.74;94812.31;5109998;28;20660;-43
2023/07/19 00:23:26;;;;;;;5.00;4.18;;;;;;;24.95;63.78;94815.16;5109798;28;20242;-44
2023/07/19 00:25:55;;;;;;;4.10;3.80;;;;;;;24.95;63.86;94818.56;5109852;28;20724;-44
2023/07/19 00:28:21;;;;;;;7.93;4.28;;;;;;;24.94;64.11;94811.75;5109437;28;20588;-44
2023/07/19 00:30:48;;;;;;;4.22;3.78;;;;;;;24.92;64.42;94816.41;5109930;28;20197;-44
2023/07/19 00:33:15;;;;;;;5.45;4.35;;;;;;;24.92;64.71;94824.25;5110370;28;20192;-43
2023/07/19 00:35:42;;;;;;;4.55;4.13;;;;;;;24.91;64.57;94817.41;5110074;28;20181;-45
2023/07/19 00:38:09;;;;;;;4.15;3.78;;;;;;;24.87;64.39;94821.53;5109163;28;20778;-45
2023/07/19 00:40:35;;;;;;;4.35;3.95;;;;;;;24.86;64.68;94819.91;5109802;28;20193;-45
2023/07/19 00:43:08;;;;;;;6.50;4.45;;;;;;;24.85;65.14;94823.56;5109331;28;20591;-43
2023/07/19 00:45:35;;;;;;;6.05;3.92;;;;;;;24.83;65.23;94835.25;5109884;28;20196;-44
2023/07/19 00:48:02;;;;;;;8.90;4.75;;;;;;;24.83;65.08;94822.16;5110025;28;20189;-44
2023/07/19 00:50:29;;;;;;;10.70;4.65;;;;;;;24.80;65.43;94828.66;5109901;28;20271;-43
2023/07/19 00:52:55;;;;;;;6.75;4.22;;;;;;;24.77;65.53;94821.25;5109475;28;20188;-43
2023/07/19 00:55:22;;;;;;;4.35;3.92;;;;;;;24.72;66.05;94821.91;5110183;28;20271;-43
2023/07/19 00:57:49;;;;;;;6.28;4.50;;;;;;;24.70;65.86;94820.56;5113517;28;20212;-43
2023/07/19 01:00:19;;;;;;;6.25;4.18;;;;;;;24.63;65.93;94819.84;5114232;28;20269;-45
2023/07/19 01:02:46;;;;;;;4.70;4.07;;;;;;;24.66;66.53;94829.88;5113925;28;20265;-45
2023/07/19 01:05:13;;;;;;;4.53;4.07;;;;;;;24.65;66.43;94823.00;5113380;28;20866;-45
2023/07/19 01:07:40;;;;;;;13.10;4.78;;;;;;;24.60;66.68;94817.66;5113179;28;20860;-45
2023/07/19 01:10:08;;;;;;;6.85;4.75;;;;;;;24.55;66.60;94820.16;5113199;28;20184;-43
2023/07/19 01:12:34;;;;;;;7.07;4.57;;;;;;;24.57;66.75;94818.91;5113221;28;20193;-43
2023/07/19 01:15:02;;;;;;;5.65;3.88;;;;;;;24.51;66.89;94811.94;5113527;28;20193;-43
2023/07/19 01:17:30;;;;;;;5.13;4.43;;;;;;;24.49;66.67;94814.00;5113379;28;20196;-44
2023/07/19 01:19:57;;;;;;;7.25;4.53;;;;;;;24.45;66.84;94813.63;5113176;28;20185;-45
2023/07/19 01:22:29;;;;;;;4.95;4.55;;;;;;;24.44;67.00;94813.84;5113194;28;20265;-44
2023/07/19 01:24:56;;;;;;;7.18;4.88;;;;;;;24.37;66.94;94800.84;5112933;28;20261;-44
2023/07/19 01:27:22;;;;;;;7.60;3.95;;;;;;;24.42;67.31;94810.66;5113599;28;20250;-43
2023/07/19 01:29:49;;;;;;;5.07;4.50;;;;;;;24.40;67.08;94820.53;5112906;28;20707;-45
2023/07/19 01:32:16;;;;;;;6.93;4.32;;;;;;;24.38;67.03;94815.53;5113142;28;20701;-44
2023/07/19 01:34:43;;;;;;;6.22;4.60;;;;;;;24.37;67.40;94810.50;5112898;28;20193;-44
2023/07/19 01:37:09;;;;;;;5.82;4.40;;;;;;;24.34;67.47;94818.75;5113293;28;20246;-44
2023/07/19 01:39:37;;;;;;;7.32;4.65;;;;;;;24.33;67.41;94806.72;5113267;28;20273;-42
2023/07/19 01:42:05;;;;;;;4.38;4.00;;;;;;;24.28;67.75;94805.56;5112923;28;20189;-43
2023/07/19 01:44:31;;;;;;;5.82;4.70;;;;;;;24.27;67.56;94811.03;5112603;28;20189;-43
2023/07/19 01:46:58;;;;;;;5.32;4.47;;;;;;;24.24;68.00;94814.84;5112668;28;20246;-43
2023/07/19 01:49:25;;;;;;;5.38;4.82;;;;;;;24.21;67.71;94811.88;5113100;28;20185;-45
2023/07/19 01:51:52;;;;;;;5.45;4.28;;;;;;;24.17;67.86;94814.13;5112821;28;20257;-43
2023/07/19 01:54:18;;;;;;;5.97;4.40;;;;;;;24.13;67.98;94804.34;5113037;28;20223;-43
2023/07/19 01:56:46;;;;;;;8.35;4.75;;;;;;;24.08;68.63;94799.75;5112403;28;20665;-43
2023/07/19 01:59:13;;;;;;;5.50;4.50;;;;;;;24.04;68.78;94801.22;5112575;28;20780;-42
2023/07/19 02:01:40;;;;;;;7.97;4.82;;;;;;;24.02;68.56;94809.28;5112169;28;20204;-43
2023/07/19 02:04:07;;;;;;;4.63;4.22;;;;;;;24.00;68.53;94805.28;5112501;28;20656;-43
2023/07/19 02:06:33;;;;;;;5.57;4.38;;;;;;;23.99;68.70;94811.53;5111377;28;20567;-45
2023/07/19 02:09:00;;;;;;;5.85;4.60;;;;;;;23.97;68.66;94805.72;5112373;28;20657;-43
2023/07/19 02:11:27;;;;;;;6.40;4.15;;;;;;;23.95;68.24;94800.72;5111901;28;20249;-42
2023/07/19 02:13:55;;;;;;;4.60;4.13;;;;;;;23.94;68.47;94799.13;5112321;28;20197;-43
2023/07/19 02:16:22;;;;;;;5.53;4.97;;;;;;;23.90;68.45;94787.50;5112542;28;20188;-43
2023/07/19 02:18:49;;;;;;;9.30;4.55;;;;;;;23.83;68.96;94780.75;5112076;28;20219;-44
2023/07/19 02:21:15;;;;;;;4.88;4.22;;;;;;;23.82;68.87;94777.34;5112379;28;20195;-43
2023/07/19 02:23:42;;;;;;;6.07;5.00;;;;;;;23.76;69.23;94771.19;5094240;28;20200;-43
2023/07/19 02:26:09;;;;;;;5.18;4.72;;;;;;;23.81;69.01;94780.97;5112018;28;20576;-44
2023/07/19 02:28:36;;;;;;;4.90;4.03;;;;;;;23.72;69.12;94769.22;5111562;28;20277;-44
2023/07/19 02:31:05;;;;;;;5.50;4.40;;;;;;;23.75;69.54;94781.84;5111898;28;20268;-43
2023/07/19 02:33:31;;;;;;;5.35;4.75;;;;;;;23.72;69.80;94762.19;5111919;28;20193;-43
2023/07/19 02:35:58;;;;;;;5.93;4.53;;;;;;;23.66;69.78;94770.06;5112364;28;20549;-43
2023/07/19 02:38:25;;;;;;;4.68;4.28;;;;;;;23.68;70.17;94771.47;5111833;28;20216;-43
2023/07/19 02:40:58;;;;;;;6.28;4.28;;;;;;;23.66;70.25;94773.50;5112016;28;20185;-43
2023/07/19 02:43:25;;;;;;;7.60;4.40;;;;;;;23.64;70.36;94775.50;5111960;28;20350;-45
2023/07/19 02:45:53;;;;;;;4.28;3.88;;;;;;;23.61;70.94;94772.50;5111860;28;20189;-44
2023/07/19 02:48:22;;;;;;;6.72;4.47;;;;;;;23.57;71.25;94766.91;5111518;28;20185;-49
2023/07/19 02:50:50;;;;;;;4.85;4.35;;;;;;;23.56;71.38;94767.94;5111663;28;20625;-44
2023/07/19 02:53:17;;;;;;;5.82;5.22;;;;;;;23.55;71.20;94768.97;5111081;28;20193;-45
2023/07/19 02:55:44;;;;;;;8.65;5.90;;;;;;;23.54;72.26;94770.78;5111571;28;20272;-43
2023/07/19 02:58:11;;;;;;;10.45;5.63;;;;;;;23.55;72.70;94774.19;5111535;28;20249;-44
2023/07/19 03:00:40;;;;;;;6.35;4.85;;;;;;;23.54;72.87;94768.16;5111475;28;20177;-45
2023/07/19 03:03:07;;;;;;;6.13;5.50;;;;;;;23.10;72.85;94698.75;5111606;28;20185;-45
2023/07/19 03:05:39;;;;;;;5.95;5.30;;;;;;;23.52;73.44;94775.41;5111313;28;20185;-43
2023/07/19 03:08:06;;;;;;;7.97;5.82;;;;;;;23.54;73.04;94777.81;5110957;28;20189;-46
2023/07/19 03:10:33;;;;;;;7.20;6.22;;;;;;;23.40;73.86;94747.63;5111081;28;20193;-46
2023/07/19 03:13:00;;;;;;;9.52;6.45;;;;;;;23.47;73.67;94758.81;5111447;28;20208;-44
2023/07/19 03:15:27;;;;;;;7.20;6.32;;;;;;;23.58;73.49;94770.34;5110812;28;20204;-43
2023/07/19 03:17:54;;;;;;;7.30;5.32;;;;;;;23.60;73.80;94768.31;5110576;28;20240;-44
2023/07/19 03:20:21;;;;;;;7.53;6.72;;;;;;;23.61;74.00;94769.91;5110611;28;20228;-45
2023/07/19 03:22:49;;;;;;;8.98;5.55;;;;;;;23.65;73.62;94769.28;5110963;28;20189;-44
2023/07/19 03:25:16;;;;;;;8.82;5.45;;;;;;;23.69;73.76;94769.66;5111009;28;20626;-44
2023/07/19 03:27:43;;;;;;;6.22;5.32;;;;;;;23.69;74.33;94774.88;5111145;28;20196;-43
2023/07/19 03:30:11;;;;;;;11.38;5.88;;;;;;;23.69;73.88;94762.63;5110450;28;20266;-45
2023/07/19 03:32:38;;;;;;;11.98;5.88;;;;;;;23.72;74.30;94754.34;5110777;28;20193;-43
2023/07/19 03:35:05;;;;;;;6.10;5.45;;;;;;;23.73;73.81;94753.34;5110863;28;20192;-44
2023/07/19 03:37:32;;;;;;;9.52;6.10;;;;;;;23.77;73.26;94751.88;5110560;28;20196;-43
2023/07/19 03:40:00;;;;;;;11.15;5.93;;;;;;;23.76;72.25;94742.47;5110755;28;20221;-43
2023/07/19 03:42:27;;;;;;;9.40;6.38;;;;;;;23.75;72.41;94742.69;5110746;28;20193;-44
2023/07/19 03:44:54;;;;;;;10.15;5.60;;;;;;;23.70;72.60;94739.91;5110656;28;20197;-43
2023/07/19 03:47:21;;;;;;;8.93;6.00;;;;;;;23.74;72.55;94731.41;5110573;28;20609;-43
2023/07/19 03:49:48;;;;;;;8.63;5.20;;;;;;;23.69;72.74;94739.09;5110829;28;20197;-44
2023/07/19 03:52:14;;;;;;;6.07;5.38;;;;;;;23.64;73.35;94727.69;5110113;28;20193;-43
2023/07/19 03:54:41;;;;;;;8.88;6.13;;;;;;;23.64;73.14;94731.09;5110377;28;20729;-45
2023/07/19 03:57:09;;;;;;;15.52;5.47;;;;;;;23.62;73.78;94729.72;5110003;28;20197;-43
2023/07/19 03:59:36;;;;;;;7.45;6.68;;;;;;;23.63;73.64;94729.53;5110890;28;20285;-45
2023/07/19 04:02:03;;;;;;;7.57;6.20;;;;;;;23.66;73.78;94731.72;5112185;28;20261;-44
2023/07/19 04:04:30;;;;;;;7.78;6.07;;;;;;;23.68;73.59;94734.13;5111701;28;20181;-43
2023/07/19 04:06:57;;;;;;;8.60;6.13;;;;;;;23.73;73.22;94732.44;5110099;28;20701;-44
2023/07/19 04:09:23;;;;;;;10.68;6.35;;;;;;;23.82;72.42;94743.38;5110403;28;20193;-46
2023/07/19 04:11:50;;;;;;;5.88;5.20;;;;;;;23.87;72.25;94737.50;5110451;28;20270;-45
2023/07/19 04:14:18;;;;;;;6.97;5.63;;;;;;;23.87;72.07;94733.06;5111633;28;20193;-44
2023/07/19 04:16:46;;;;;;;9.43;6.18;;;;;;;23.87;71.89;94725.25;5110119;28;20691;-44
2023/07/19 04:19:12;;;;;;;9.75;6.35;;;;;;;24.00;71.55;94734.75;5109771;28;20228;-44
2023/07/19 04:21:39;;;;;;;6.93;5.43;;;;;;;24.08;71.05;94731.03;5110195;28;20194;-43
2023/07/19 04:24:06;;;;;;;8.88;6.13;;;;;;;24.15;71.06;94734.38;5109583;28;20265;-43
2023/07/19 04:26:33;;;;;;;11.13;6.18;;;;;;;24.22;70.66;94728.03;5109805;28;20675;-43
2023/07/19 04:29:00;;;;;;;10.02;5.82;;;;;;;24.24;70.66;94723.38;5109461;28;20228;-44
2023/07/19 04:31:28;;;;;;;11.70;6.07;;;;;;;24.29;70.37;94717.47;5109942;28;20193;-43
2023/07/19 04:33:55;;;;;;;8.90;6.38;;;;;;;24.37;69.55;94725.03;5109800;28;20193;-46
2023/07/19 04:36:21;;;;;;;7.40;5.72;;;;;;;24.34;69.58;94724.66;5109897;28;20804;-43
2023/07/19 04:38:48;;;;;;;8.68;6.68;;;;;;;24.43;69.25;94724.16;5109379;28;20637;-44
2023/07/19 04:41:15;;;;;;;8.48;6.20;;;;;;;24.51;69.40;94723.03;5109957;28;20192;-44
2023/07/19 04:43:42;;;;;;;7.10;6.18;;;;;;;24.57;68.59;94722.16;5109883;28;20189;-44
2023/07/19 04:46:08;;;;;;;7.80;5.70;;;;;;;24.64;68.24;94724.66;5109853;28;20199;-44
2023/07/19 04:48:37;;;;;;;9.38;5.88;;;;;;;24.74;67.84;94723.09;5109655;28;20633;-43
2023/07/19 04:51:06;;;;;;;8.35;6.65;;;;;;;24.80;68.74;94726.63;5109956;28;20189;-45
2023/07/19 04:53:33;;;;;;;8.20;6.65;;;;;;;24.84;68.40;94725.16;5109546;28;20223;-45
2023/07/19 04:55:59;;;;;;;13.40;6.25;;;;;;;24.94;68.31;94728.00;5109721;28;20203;-45
2023/07/19 04:58:26;;;;;;;7.82;6.40;;;;;;;25.03;67.82;94733.69;5109931;28;20253;-44
2023/07/19 05:00:53;;;;;;;7.65;5.95;;;;;;;25.12;67.66;94734.19;5109551;28;20224;-44
2023/07/19 05:03:21;;;;;;;9.48;6.68;;;;;;;25.18;66.88;94734.09;5109838;28;20181;-44
2023/07/19 05:05:50;;;;;;;9.20;6.07;;;;;;;25.17;66.60;94732.50;5109303;28;20188;-44
2023/07/19 05:08:17;;;;;;;10.77;6.95;;;;;;;25.28;65.83;94739.56;5109664;28;20193;-43
2023/07/19 05:10:43;;;;;;;7.47;6.70;;;;;;;25.36;66.24;94738.41;5109612;28;20181;-45
2023/07/19 05:13:10;;;;;;;10.18;6.85;;;;;;;25.39;66.14;94742.38;5109773;28;20636;-44
2023/07/19 05:15:37;;;;;;;8.20;6.60;;;;;;;25.50;65.55;94737.16;5109517;28;20189;-43
2023/07/19 05:18:04;;;;;;;7.45;6.30;;;;;;;25.68;64.88;94733.59;5109884;28;20185;-43
2023/07/19 05:20:30;;;;;;;10.50;6.10;;;;;;;26.01;64.81;94726.94;5109145;28;20247;-42
2023/07/19 05:22:58;;;;;;;10.50;6.63;;;;;;;26.41;63.53;94724.28;5109399;28;20852;-45
2023/07/19 05:25:25;;;;;;;9.68;6.28;;;;;;;26.78;61.79;94726.53;5109890;28;20193;-45
2023/07/19 05:27:52;;;;;;;15.43;6.43;;;;;;;26.98;61.22;94721.56;5109191;28;20636;-43
2023/07/19 05:30:19;;;;;;;14.90;7.05;;;;;;;27.07;60.78;94700.16;5109270;28;20282;-44
2023/07/19 05:32:46;;;;;;;11.27;7.13;;;;;;;27.36;60.38;94721.91;5109158;28;20212;-45
2023/07/19 05:35:13;;;;;;;9.23;7.05;;;;;;;27.53;60.36;94717.41;5108870;28;20200;-45
2023/07/19 05:37:40;;;;;;;12.82;6.07;;;;;;;27.81;58.83;94720.94;5108728;28;20278;-44
2023/07/19 05:40:09;;;;;;;9.50;5.78;;;;;;;28.30;57.98;94721.75;5109123;28;20312;-44
2023/07/19 05:42:36;;;;;;;10.90;6.32;;;;;;;28.81;55.08;94724.13;5111468;28;20193;-44
2023/07/19 05:45:05;;;;;;;7.93;6.55;;;;;;;29.05;53.95;94720.09;5113215;28;20185;-45
2023/07/19 05:47:32;;;;;;;15.30;5.70;;;;;;;29.35;53.10;94708.19;5112571;28;20789;-44
2023/07/19 05:49:58;;;;;;;6.38;5.45;;;;;;;29.79;52.37;94713.97;5113075;28;20998;-44
2023/07/19 05:52:27;;;;;;;7.20;5.40;;;;;;;30.13;50.20;94709.06;5112835;28;20193;-45
2023/07/19 05:54:53;;;;;;;9.35;5.68;;;;;;;30.36;50.15;94712.34;5113008;28;20197;-44
2023/07/19 05:57:22;;;;;;;9.77;6.38;;;;;;;30.55;49.26;94715.28;5112508;28;20204;-43
2023/07/19 05:59:48;;;;;;;7.95;5.72;;;;;;;30.84;49.00;94707.69;5112958;28;20233;-46
2023/07/19 06:02:15;;;;;;;10.05;5.60;;;;;;;31.14;48.50;94712.16;5112764;28;20188;-45
2023/07/19 06:04:42;;;;;;;11.02;5.47;;;;;;;31.46;47.05;94710.00;5113225;28;20197;-44
2023/07/19 06:07:09;;;;;;;7.28;5.53;;;;;;;31.82;46.67;94711.75;5112562;28;20579;-44
2023/07/19 06:09:36;;;;;;;8.60;5.00;;;;;;;32.14;46.22;94721.97;5112182;28;20232;-45
2023/07/19 06:12:03;;;;;;;8.38;5.18;;;;;;;32.43;44.89;94725.53;5112643;28;20189;-44
2023/07/19 06:14:31;;;;;;;7.70;4.93;;;;;;;32.52;44.49;94732.91;5112207;28;20185;-43
2023/07/19 06:16:57;;;;;;;6.57;5.72;;;;;;;32.68;44.03;94732.50;5112214;28;20200;-45
2023/07/19 06:19:24;;;;;;;7.13;5.65;;;;;;;32.57;43.83;94728.38;5112169;28;20221;-44
2023/07/19 06:21:51;;;;;;;5.82;5.32;;;;;;;32.37;44.26;94720.50;5112723;28;20196;-46
2023/07/19 06:24:18;;;;;;;10.52;5.40;;;;;;;32.34;44.47;94721.06;5112255;28;20220;-45
2023/07/19 06:26:45;;;;;;;11.00;5.85;;;;;;;32.44;45.14;94724.47;5112152;28;20189;-44
2023/07/19 06:29:11;;;;;;;9.95;5.47;;;;;;;32.58;43.65;94724.66;5111910;28;20657;-44
2023/07/19 06:31:39;;;;;;;9.93;5.97;;;;;;;32.38;43.75;94720.25;5111973;28;20246;-43
2023/07/19 06:34:07;;;;;;;7.60;5.68;;;;;;;32.21;43.74;94717.16;5111975;28;20614;-45
2023/07/19 06:36:34;;;;;;;7.53;5.80;;;;;;;32.05;44.33;94716.44;5112470;28;20181;-43
2023/07/19 06:39:00;;;;;;;5.88;5.32;;;;;;;32.06;44.54;94712.72;5111815;28;20185;-45
2023/07/19 06:41:27;;;;;;;9.38;5.35;;;;;;;32.15;44.59;94708.44;5111580;28;20231;-43
2023/07/19 06:43:54;;;;;;;12.75;6.05;;;;;;;32.58;44.19;94716.69;5111903;28;20184;-46
2023/07/19 06:46:21;;;;;;;14.32;6.18;;;;;;;32.87;43.65;94715.97;5111512;28;20205;-44
2023/07/19 06:48:49;;;;;;;12.90;5.50;;;;;;;32.99;43.06;94710.31;5112070;28;20185;-45
2023/07/19 06:51:16;;;;;;;8.60;5.18;;;;;;;32.95;43.04;94716.19;5111730;28;20192;-46
2023/07/19 06:53:43;;;;;;;9.23;5.40;;;;;;;32.94;42.65;94714.59;5112096;28;20212;-44
2023/07/19 06:56:10;;;;;;;8.20;5.72;;;;;;;32.94;42.58;94721.75;5111762;28;20249;-45
2023/07/19 06:58:36;;;;;;;12.35;5.93;;;;;;;32.90;42.98;94718.88;5112162;28;20185;-44
2023/07/19 07:01:03;;;;;;;11.88;5.43;;;;;;;32.85;42.99;94721.53;5111008;28;20600;-44
2023/07/19 07:03:30;;;;;;;10.52;5.85;;;;;;;32.92;43.26;94722.03;5111486;28;20246;-46
2023/07/19 07:06:00;;;;;;;13.82;6.40;;;;;;;33.00;42.98;94723.31;5111504;28;20192;-43
2023/07/19 07:08:27;;;;;;;14.23;6.40;;;;;;;33.03;42.84;94720.09;5111485;28;20212;-44
2023/07/19 07:10:53;;;;;;;10.13;6.13;;;;;;;33.21;42.56;94722.06;5111947;28;20181;-45
2023/07/19 07:13:20;;;;;;;12.52;6.25;;;;;;;33.31;42.67;94717.75;5111251;28;20249;-45
2023/07/19 07:15:47;;;;;;;13.90;6.75;;;;;;;33.50;42.42;94712.53;5111211;28;20582;-44
2023/07/19 07:18:14;;;;;;;10.35;5.85;;;;;;;33.63;42.14;94710.00;5111023;28;20250;-43
2023/07/19 07:20:41;;;;;;;6.38;5.50;;;;;;;33.79;41.94;94713.28;5111181;28;20221;-44
2023/07/19 07:23:09;;;;;;;9.38;5.10;;;;;;;33.99;40.91;94708.84;5110868;28;20196;-44
2023/07/19 07:25:37;;;;;;;8.55;4.90;;;;;;;34.22;40.54;94715.16;5111217;28;20189;-44
2023/07/19 07:28:04;;;;;;;10.82;5.50;;;;;;;34.43;40.60;94711.16;5110683;28;20200;-44
2023/07/19 07:30:31;;;;;;;10.73;5.70;;;;;;;34.70;40.41;94713.97;5110750;28;20224;-44
2023/07/19 07:32:58;;;;;;;12.95;6.25;;;;;;;34.76;40.67;94711.22;5110674;28;20250;-44
2023/07/19 07:35:24;;;;;;;11.38;6.10;;;;;;;34.57;40.76;94713.91;5111296;28;20188;-44
2023/07/19 07:37:51;;;;;;;7.43;5.13;;;;;;;34.32;40.91;94704.41;5110585;28;20261;-45
2023/07/19 07:40:19;;;;;;;9.05;5.72;;;;;;;34.11;41.13;94677.34;5110460;28;20231;-44
2023/07/19 07:42:46;;;;;;;8.00;5.32;;;;;;;34.20;41.51;94692.34;5110261;28;20192;-44
2023/07/19 07:45:13;;;;;;;12.35;5.32;;;;;;;34.32;40.76;94691.13;5110675;28;20177;-45
2023/07/19 07:47:40;;;;;;;7.95;5.40;;;;;;;34.24;41.04;94684.59;5110583;28;20253;-44
2023/07/19 07:50:09;;;;;;;5.50;4.72;;;;;;;34.40;40.88;94680.66;5110416;28;20254;-44
2023/07/19 07:52:36;;;;;;;9.27;5.10;;;;;;;34.55;40.12;94678.88;5110276;28;20216;-44
2023/07/19 07:55:04;;;;;;;8.38;5.43;;;;;;;34.56;39.49;94681.25;5111197;28;20224;-45
2023/07/19 07:57:33;;;;;;;7.07;5.28;;;;;;;34.67;39.08;94666.75;5110435;28;20543;-45
2023/07/19 08:00:00;;;;;;;6.47;4.97;;;;;;;35.03;38.62;94666.16;5110081;28;20281;-45
2023/07/19 08:02:27;;;;;;;8.07;5.07;;;;;;;35.24;38.65;94669.25;5110575;28;20196;-44
2023/07/19 08:04:54;;;;;;;9.25;5.85;;;;;;;35.25;38.63;94670.03;5109598;28;20735;-45
2023/07/19 08:07:21;;;;;;;6.70;4.80;;;;;;;35.22;38.80;94668.75;5110058;28;20247;-44
2023/07/19 08:09:47;;;;;;;8.55;5.57;;;;;;;35.10;38.87;94661.25;5109953;28;20196;-45
2023/07/19 08:12:15;;;;;;;14.30;4.93;;;;;;;35.12;38.76;94659.09;5110343;28;20294;-44
2023/07/19 08:14:43;;;;;;;10.23;5.47;;;;;;;35.30;38.49;94646.78;5110024;28;20282;-44
2023/07/19 08:17:10;;;;;;;9.50;5.28;;;;;;;35.55;38.15;94652.75;5110275;28;20195;-45
2023/07/19 08:19:36;;;;;;;10.18;5.47;;;;;;;35.60;38.20;94657.97;5109996;28;20279;-46
2023/07/19 08:22:05;;;;;;;7.28;5.40;;;;;;;35.74;38.17;94660.63;5110205;28;20231;-43
2023/07/19 08:24:32;;;;;;;6.97;5.13;;;;;;;35.61;38.49;94659.53;5110121;28;20188;-44
2023/07/19 08:26:59;;;;;;;9.95;5.45;;;;;;;35.62;38.60;94661.94;5109829;28;20197;-46
2023/07/19 08:29:28;;;;;;;9.98;5.35;;;;;;;35.42;38.33;94643.66;5109839;28;20285;-44
2023/07/19 08:31:56;;;;;;;7.68;4.88;;;;;;;35.55;38.49;94658.84;5109907;28;20215;-45
2023/07/19 08:34:22;;;;;;;9.60;5.43;;;;;;;35.68;38.98;94659.94;5109863;28;20188;-44
2023/07/19 08:36:49;;;;;;;9.75;5.82;;;;;;;35.73;38.42;94659.84;5109476;28;20192;-46
2023/07/19 08:39:16;;;;;;;7.65;5.30;;;;;;;35.55;38.62;94656.19;5109738;28;20188;-45
2023/07/19 08:41:44;;;;;;;7.43;5.18;;;;;;;35.52;39.00;94645.34;5109648;28;20225;-45
2023/07/19 08:44:11;;;;;;;11.00;5.50;;;;;;;35.63;38.75;94649.41;5109653;28;20193;-44
2023/07/19 08:46:39;;;;;;;11.18;6.18;;;;;;;35.43;39.10;94637.25;5109749;28;20756;-44
2023/07/19 08:49:08;;;;;;;6.20;5.45;;;;;;;35.50;38.95;94644.88;5109912;28;20246;-44
2023/07/19 08:51:38;;;;;;;12.43;5.45;;;;;;;35.52;38.76;94640.81;5109517;28;20640;-46
2023/07/19 08:54:05;;;;;;;9.90;5.05;;;;;;;35.65;38.63;94633.91;5109603;28;20660;-45
2023/07/19 08:56:32;;;;;;;11.07;5.18;;;;;;;35.76;38.63;94635.28;5109428;28;20656;-43
2023/07/19 08:58:59;;;;;;;7.43;5.00;;;;;;;35.75;38.46;94619.59;5109872;28;20681;-45
2023/07/19 09:01:25;;;;;;;7.75;5.45;;;;;;;35.84;38.14;94617.81;5109411;28;20214;-43
2023/07/19 09:03:53;;;;;;;8.85;4.97;;;;;;;35.84;37.92;94618.63;5109759;28;20181;-43
2023/07/19 09:06:28;;;;;;;13.07;5.22;;;;;;;35.93;37.84;94622.16;5109600;28;20576;-44
2023/07/19 09:08:56;;;;;;;7.20;5.40;;;;;;;35.91;37.87;94618.19;5109544;28;20196;-45
2023/07/19 09:11:23;;;;;;;8.63;5.20;;;;;;;35.71;38.42;94622.09;5109511;28;20212;-43
2023/07/19 09:13:53;;;;;;;8.98;5.70;;;;;;;35.73;38.85;94621.78;5109736;28;20192;-44
2023/07/19 09:16:27;;;;;;;11.10;5.30;;;;;;;35.75;38.73;94617.72;5110112;28;20633;-44
2023/07/19 09:18:54;;;;;;;9.07;5.53;;;;;;;35.66;39.04;94617.63;5113512;28;20211;-45
2023/07/19 09:21:33;;;;;;;9.20;5.05;;;;;;;35.60;38.92;94620.72;5113196;28;20790;-45
2023/07/19 09:24:03;;;;;;;8.25;5.22;;;;;;;35.60;38.90;94610.84;5113503;28;20222;-46
2023/07/19 09:26:43;;;;;;;7.13;5.63;;;;;;;35.69;37.45;94622.38;5113417;28;20188;-45
2023/07/19 09:29:11;;;;;;;16.80;6.28;;;;;;;35.69;37.27;94608.28;5113070;28;20229;-45
2023/07/19 09:31:53;;;;;;;8.48;5.65;;;;;;;35.71;38.14;94581.38;5113017;28;20284;-45
2023/07/19 09:34:21;;;;;;;11.35;5.68;;;;;;;35.88;38.90;94608.16;5112991;28;20215;-45
2023/07/19 09:36:52;;;;;;;7.60;5.40;;;;;;;35.60;39.68;94615.41;5113142;28;20276;-45
2023/07/19 09:39:19;;;;;;;7.95;5.65;;;;;;;35.59;39.66;94611.16;5113245;28;20204;-45
2023/07/19 09:41:46;;;;;;;7.18;5.35;;;;;;;35.62;39.61;94605.22;5112900;28;20212;-45
2023/07/19 09:44:15;;;;;;;5.97;5.38;;;;;;;35.63;36.76;94604.16;5113537;28;20189;-45
2023/07/19 09:46:44;;;;;;;13.13;5.60;;;;;;;35.58;35.90;94597.06;5113258;28;20246;-44
2023/07/19 09:49:11;;;;;;;7.43;5.10;;;;;;;35.73;34.48;94597.84;5112688;28;20189;-44
2023/07/19 09:51:41;;;;;;;6.97;5.25;;;;;;;35.77;34.79;94593.50;5112495;28;20656;-44
2023/07/19 09:54:10;;;;;;;8.60;5.40;;;;;;;35.94;33.43;94596.31;5112911;28;20217;-45
2023/07/19 09:56:38;;;;;;;11.38;6.13;;;;;;;35.95;33.53;94589.91;5112458;28;20243;-44
2023/07/19 09:59:08;;;;;;;6.72;6.00;;;;;;;36.03;35.75;94585.75;5112733;28;20692;-44
2023/07/19 10:01:36;;;;;;;8.55;5.57;;;;;;;35.91;36.00;94576.41;5112678;28;20311;-45
2023/07/19 10:04:22;;;;;;;9.05;5.10;;;;;;;35.81;33.81;94578.50;5112264;28;20215;-44
2023/07/19 10:06:49;;;;;;;9.15;5.45;;;;;;;35.74;34.15;94576.25;5112084;28;20742;-45
2023/07/19 10:09:36;;;;;;;8.43;5.80;;;;;;;35.90;34.80;94580.16;5112378;28;20560;-44
2023/07/19 10:12:06;;;;;;;10.70;5.30;;;;;;;36.06;33.73;94582.50;5112216;28;20196;-45
2023/07/19 10:14:34;;;;;;;8.82;5.13;;;;;;;36.08;33.70;94575.00;5112391;28;20192;-45
2023/07/19 10:17:03;;;;;;;10.65;5.53;;;;;;;36.03;33.17;94573.25;5112604;28;21053;-46
2023/07/19 10:19:30;;;;;;;7.43;5.38;;;;;;;35.83;33.18;94558.47;5112308;28;20181;-45
2023/07/19 10:22:05;;;;;;;10.00;5.30;;;;;;;35.66;33.98;94539.69;5111907;28;20228;-45
2023/07/19 10:24:35;;;;;;;6.45;4.95;;;;;;;35.90;33.73;94561.50;5112280;28;20192;-44
2023/07/19 10:27:03;;;;;;;11.43;5.78;;;;;;;35.94;33.55;94557.16;5111081;28;20208;-45
2023/07/19 10:29:40;;;;;;;10.55;5.93;;;;;;;35.99;34.09;94556.28;5112165;28;20605;-46
2023/07/19 10:32:08;;;;;;;7.45;5.28;;;;;;;36.10;33.89;94554.97;5112200;28;20196;-44
2023/07/19 10:34:36;;;;;;;8.40;5.15;;;;;;;36.15;33.54;94557.50;5094423;28;20193;-46
2023/07/19 10:37:04;;;;;;;12.02;5.80;;;;;;;36.16;33.52;94553.75;5112256;28;20225;-45
2023/07/19 10:39:32;;;;;;;9.50;5.70;;;;;;;36.14;33.53;94552.47;5112164;28;20636;-45
2023/07/19 10:42:01;;;;;;;12.50;5.18;;;;;;;36.10;33.77;94544.31;5111552;28;20225;-47
2023/07/19 10:44:28;;;;;;;7.38;5.68;;;;;;;36.19;34.17;94552.38;5111811;28;20250;-44
2023/07/19 10:46:55;;;;;;;9.20;4.97;;;;;;;36.29;32.90;94541.47;5111530;28;20193;-45
2023/07/19 10:49:23;;;;;;;7.60;5.70;;;;;;;36.22;33.30;94542.97;5111789;28;20247;-44
2023/07/19 10:51:54;;;;;;;7.63;5.00;;;;;;;36.12;33.18;94541.34;5111639;28;20711;-45
2023/07/19 10:54:22;;;;;;;9.85;6.35;;;;;;;36.10;33.38;94541.66;5111447;28;20201;-44
2023/07/19 10:56:49;;;;;;;10.82;5.10;;;;;;;36.12;33.58;94544.00;5111585;28;20584;-44
2023/07/19 10:59:18;;;;;;;11.55;4.90;;;;;;;36.06;33.10;94535.38;5111210;28;20189;-45
2023/07/19 11:01:48;;;;;;;7.80;4.43;;;;;;;36.16;32.83;94539.66;5111545;28;20220;-44
2023/07/19 11:04:18;;;;;;;5.68;4.82;;;;;;;36.11;32.93;94537.91;5111517;28;20177;-45
2023/07/19 11:06:55;;;;;;;6.47;4.47;;;;;;;36.15;31.93;94548.75;5111959;28;20181;-45
2023/07/19 11:09:23;;;;;;;6.32;4.82;;;;;;;35.93;32.23;94539.63;5111489;28;20686;-45
2023/07/19 11:11:51;;;;;;;11.50;5.10;;;;;;;35.85;32.32;94542.22;5111203;28;20197;-46
2023/07/19 11:14:32;;;;;;;5.90;4.82;;;;;;;35.62;32.71;94510.25;5111338;28;20187;-45
2023/07/19 11:16:59;;;;;;;6.03;5.40;;;;;;;35.71;32.64;94533.47;5111178;28;20204;-45
2023/07/19 11:19:35;;;;;;;4.80;4.30;;;;;;;35.74;32.53;94535.53;5111949;28;20181;-45
2023/07/19 11:22:01;;;;;;;6.90;4.63;;;;;;;35.75;32.39;94529.13;5111295;28;20699;-46
2023/07/19 11:24:39;;;;;;;5.57;4.40;;;;;;;35.79;32.13;94528.22;5111301;28;20196;-44
2023/07/19 11:27:06;;;;;;;4.38;4.03;;;;;;;35.83;32.33;94537.19;5111358;28;20177;-44
2023/07/19 11:29:36;;;;;;;4.07;3.78;;;;;;;35.80;33.08;94543.13;5110954;28;20225;-45
2023/07/19 11:32:16;;;;;;;4.55;4.15;;;;;;;35.89;31.74;94538.66;5110761;28;20181;-45
2023/07/19 11:34:51;;;;;;;4.95;4.53;;;;;;;35.73;32.04;94524.09;5111299;28;20593;-45